Terminal Aerodrome Forecast
Issued by NWS

Home | Current Version | Previous Version | Text Only | Print | Product List | Glossary On
Versions: 1 2 3 4 5 6 7 8 9 10 11 12 13 14 15 16 17 18 19 20 21 22 23
000
FTUS41 KBTV 231731
TAFSLK
TAF
KSLK 231731Z 2318/2418 23010G20KT P6SM SKC
     FM240000 24005KT P6SM FEW150
     FM240600 VRB03KT P6SM BKN035 OVC060
     FM241600 VRB04KT P6SM BKN080=

USA.gov is the U.S. government's official web portal to all federal, state and local government web resources and services.